Time;durP1;ratioP1;P1;durP2;ratioP2;P2;SDS_P1;SDS_P2;PMS_P1;PMS_P2;Temp;Humidity;BMP_temperature;BMP_pressure;BME280_temperature;BME280_humidity;BME280_pressure;Samples;Min_cycle;Max_cycle;Signal;HPM_P1;HPM_P2
2021/08/12 04:01:58;;;;;;;14.63;13.33;;;14.20;99.90;;;;;;5235768;23;21121;-70
2021/08/12 04:04:24;;;;;;;13.30;12.30;;;14.20;99.90;;;;;;4913054;29;20473;-67
2021/08/12 04:06:51;;;;;;;15.60;14.07;;;14.20;99.90;;;;;;4915991;29;20474;-69
2021/08/12 04:09:18;;;;;;;14.50;13.00;;;14.20;99.90;;;;;;4900230;29;20915;-71
2021/08/12 04:11:44;;;;;;;15.13;13.43;;;14.20;99.90;;;;;;4913772;29;20569;-70
2021/08/12 04:14:11;;;;;;;14.90;13.27;;;14.20;99.90;;;;;;4915513;29;20470;-71
2021/08/12 04:16:37;;;;;;;13.90;12.70;;;14.20;99.90;;;;;;4916211;29;20463;-70
2021/08/12 04:19:06;;;;;;;13.37;12.17;;;14.20;99.90;;;;;;4915433;29;20466;-68
2021/08/12 04:21:32;;;;;;;15.63;14.33;;;14.30;99.90;;;;;;4915885;29;20998;-71
2021/08/12 04:23:59;;;;;;;13.80;12.50;;;14.30;99.90;;;;;;4914860;29;20551;-71
2021/08/12 04:26:27;;;;;;;14.47;13.03;;;14.30;99.90;;;;;;4915641;29;20842;-67
2021/08/12 04:28:54;;;;;;;16.07;14.47;;;14.40;99.90;;;;;;4915764;29;20565;-68
2021/08/12 04:31:21;;;;;;;17.47;13.60;;;14.40;99.90;;;;;;4915361;29;20486;-69
2021/08/12 04:33:47;;;;;;;13.90;12.53;;;14.50;99.90;;;;;;4914768;29;20880;-69
2021/08/12 04:36:16;;;;;;;15.47;14.17;;;14.50;99.90;;;;;;4915436;29;20981;-70
2021/08/12 04:38:42;;;;;;;13.50;12.30;;;14.60;99.90;;;;;;4914928;29;20963;-69
2021/08/12 04:41:09;;;;;;;14.13;12.93;;;14.60;99.90;;;;;;4915246;29;20494;-69
2021/08/12 04:43:36;;;;;;;14.53;13.00;;;14.70;99.90;;;;;;4914885;29;20462;-69
2021/08/12 04:46:02;;;;;;;14.80;13.33;;;14.60;99.90;;;;;;4915219;29;20458;-70
2021/08/12 04:48:29;;;;;;;13.40;12.30;;;14.70;99.90;;;;;;4914846;29;20472;-69
2021/08/12 04:50:56;;;;;;;13.53;12.37;;;14.70;99.90;;;;;;4917453;29;20518;-69
2021/08/12 04:53:24;;;;;;;12.73;11.53;;;14.90;99.90;;;;;;4920045;29;20542;-68
2021/08/12 04:55:50;;;;;;;12.50;11.20;;;14.90;99.90;;;;;;4923393;29;20474;-69
2021/08/12 04:58:17;;;;;;;11.93;11.00;;;14.90;99.90;;;;;;4923274;29;20491;-69
2021/08/12 05:00:44;;;;;;;12.20;11.20;;;15.00;99.90;;;;;;4919220;29;20573;-70
2021/08/12 05:03:10;;;;;;;13.87;12.60;;;15.00;99.90;;;;;;4918029;29;20542;-68
2021/08/12 05:05:37;;;;;;;12.70;11.50;;;15.10;99.90;;;;;;4916751;29;20479;-69
2021/08/12 05:08:04;;;;;;;11.87;10.97;;;15.20;99.90;;;;;;4915337;29;20463;-70
2021/08/12 05:10:32;;;;;;;13.50;12.30;;;15.20;99.90;;;;;;4915791;29;20585;-69
2021/08/12 05:12:59;;;;;;;11.87;10.87;;;15.40;99.90;;;;;;4914879;29;20488;-69
2021/08/12 05:15:27;;;;;;;12.00;11.00;;;15.50;99.90;;;;;;4915112;29;21000;-69
2021/08/12 05:17:54;;;;;;;11.63;10.53;;;15.60;99.90;;;;;;4914981;29;20462;-69
2021/08/12 05:20:21;;;;;;;10.27;9.50;;;15.70;99.90;;;;;;4915105;29;20495;-69
2021/08/12 05:22:48;;;;;;;10.70;9.87;;;15.70;99.90;;;;;;4914933;29;20482;-70
2021/08/12 05:25:15;;;;;;;10.63;9.83;;;15.80;99.90;;;;;;4913894;29;20467;-69
2021/08/12 05:27:43;;;;;;;10.93;10.03;;;15.90;99.90;;;;;;4915520;29;20600;-67
2021/08/12 05:30:10;;;;;;;10.20;9.50;;;15.90;99.90;;;;;;4915092;29;20538;-69
2021/08/12 05:32:37;;;;;;;10.07;9.47;;;16.10;99.90;;;;;;4914756;29;20489;-69
2021/08/12 05:35:04;;;;;;;9.97;9.30;;;16.10;99.90;;;;;;4914087;29;20459;-67
2021/08/12 05:37:31;;;;;;;10.10;9.40;;;16.00;99.90;;;;;;4915510;29;20529;-69
2021/08/12 05:39:57;;;;;;;10.20;9.50;;;16.10;99.90;;;;;;4917679;29;20486;-69
2021/08/12 05:42:24;;;;;;;9.57;8.87;;;16.20;99.90;;;;;;4916641;29;20541;-69
2021/08/12 05:44:52;;;;;;;10.07;9.10;;;16.20;99.90;;;;;;4917789;29;20474;-69
2021/08/12 05:47:19;;;;;;;10.27;9.33;;;16.20;99.90;;;;;;4918546;29;20557;-68
2021/08/12 05:49:45;;;;;;;10.30;9.50;;;16.30;99.90;;;;;;4918078;29;20521;-69
2021/08/12 05:52:12;;;;;;;9.83;8.93;;;16.30;99.90;;;;;;4917743;29;20505;-69
2021/08/12 05:54:39;;;;;;;10.20;9.30;;;16.40;99.90;;;;;;4917701;29;20467;-69
2021/08/12 05:57:06;;;;;;;9.80;9.10;;;16.50;99.90;;;;;;4918635;29;20458;-68
2021/08/12 05:59:32;;;;;;;9.23;8.60;;;16.60;99.90;;;;;;4918177;29;20470;-69
2021/08/12 06:02:00;;;;;;;9.27;8.57;;;16.70;99.90;;;;;;4917773;29;21070;-69
2021/08/12 06:04:27;;;;;;;9.80;9.10;;;16.80;99.90;;;;;;4918023;29;20470;-68
2021/08/12 06:06:54;;;;;;;8.57;7.97;;;16.90;99.90;;;;;;4917788;29;20585;-68
2021/08/12 06:09:21;;;;;;;8.43;7.83;;;17.10;99.90;;;;;;4917337;29;20533;-69
2021/08/12 06:11:48;;;;;;;7.60;7.10;;;17.70;99.90;;;;;;4917764;29;20903;-68
2021/08/12 06:14:15;;;;;;;8.17;7.67;;;18.70;99.90;;;;;;4918468;29;20463;-67
2021/08/12 06:16:41;;;;;;;7.27;6.87;;;19.40;99.90;;;;;;4918029;29;20501;-68
2021/08/12 06:19:09;;;;;;;7.33;6.93;;;19.90;99.90;;;;;;4917642;29;20466;-66
2021/08/12 06:21:36;;;;;;;6.32;6.03;;;20.40;99.90;;;;;;4917727;29;20404;-66
2021/08/12 06:24:02;;;;;;;6.93;6.30;;;20.10;99.90;;;;;;4916553;29;20202;-68
2021/08/12 06:26:29;;;;;;;6.90;6.50;;;19.80;99.90;;;;;;4918431;29;20463;-67
2021/08/12 06:28:56;;;;;;;6.63;6.27;;;19.60;99.90;;;;;;4917270;29;20466;-69
2021/08/12 06:31:22;;;;;;;6.83;6.43;;;19.50;99.90;;;;;;4913038;29;20487;-69
2021/08/12 06:33:49;;;;;;;8.33;7.77;;;19.50;99.90;;;;;;4903528;29;20470;-69
2021/08/12 06:36:17;;;;;;;6.87;6.60;;;19.30;99.90;;;;;;4917047;29;20475;-68
2021/08/12 06:38:44;;;;;;;7.47;7.07;;;19.40;99.90;;;;;;4917000;29;20885;-69
2021/08/12 06:41:10;;;;;;;8.00;7.60;;;19.60;99.90;;;;;;4917031;29;21002;-69
2021/08/12 06:43:37;;;;;;;7.47;6.97;;;19.90;99.90;;;;;;4917031;29;20487;-69
2021/08/12 06:46:03;;;;;;;7.20;6.67;;;20.50;99.90;;;;;;4917022;29;20982;-69
2021/08/12 06:48:30;;;;;;;7.67;7.17;;;20.50;99.90;;;;;;4916594;29;20479;-69
2021/08/12 06:50:57;;;;;;;7.63;7.17;;;20.30;99.90;;;;;;4917047;29;20561;-67
2021/08/12 06:53:25;;;;;;;8.10;7.60;;;20.30;99.90;;;;;;4916485;29;21060;-67
2021/08/12 06:55:51;;;;;;;9.33;8.63;;;20.50;99.90;;;;;;4917337;29;20459;-67
2021/08/12 06:58:18;;;;;;;8.33;7.73;;;20.80;99.90;;;;;;4917243;29;20474;-67
2021/08/12 07:00:45;;;;;;;12.83;7.63;;;21.40;99.90;;;;;;4915847;29;20561;-67
2021/08/12 07:03:11;;;;;;;7.40;7.00;;;21.90;99.90;;;;;;4915467;29;20551;-68
2021/08/12 07:05:38;;;;;;;7.20;6.80;;;22.20;99.90;;;;;;4916625;29;20470;-67
2021/08/12 07:08:08;;;;;;;6.30;6.00;;;22.40;99.90;;;;;;4916898;29;20471;-67
2021/08/12 07:10:36;;;;;;;6.90;6.57;;;22.40;99.90;;;;;;4916338;29;20588;-68
2021/08/12 07:13:04;;;;;;;7.13;6.63;;;22.40;99.90;;;;;;4911127;29;20588;-68
2021/08/12 07:15:30;;;;;;;7.90;7.50;;;22.10;99.90;;;;;;4912733;29;20462;-68
2021/08/12 07:17:57;;;;;;;6.80;6.40;;;22.00;99.90;;;;;;4910714;29;20466;-68
2021/08/12 07:20:24;;;;;;;6.70;6.40;;;21.80;99.90;;;;;;4915488;29;20482;-67
2021/08/12 07:22:50;;;;;;;6.43;6.13;;;22.00;99.90;;;;;;4914356;29;20475;-68
2021/08/12 07:25:17;;;;;;;6.30;6.00;;;21.90;99.90;;;;;;4913732;29;20489;-67
2021/08/12 07:27:48;;;;;;;6.60;6.30;;;21.90;99.90;;;;;;4907053;29;20519;-67
2021/08/12 07:30:16;;;;;;;6.67;6.17;;;22.40;99.90;;;;;;4904049;29;20459;-68
2021/08/12 07:32:42;;;;;;;5.30;5.00;;;23.00;99.90;;;;;;4915558;29;20935;-68
2021/08/12 07:35:10;;;;;;;5.70;5.50;;;23.60;99.90;;;;;;4915416;29;20462;-68
2021/08/12 07:37:36;;;;;;;6.10;5.60;;;24.10;99.90;;;;;;4916317;29;20739;-66
2021/08/12 07:40:04;;;;;;;5.30;5.10;;;24.00;99.90;;;;;;4915056;29;20502;-69
2021/08/12 07:42:31;;;;;;;6.20;5.70;;;23.40;99.90;;;;;;4916034;29;20471;-67
2021/08/12 07:45:01;;;;;;;6.60;6.10;;;23.10;99.90;;;;;;4916028;29;20478;-67
2021/08/12 07:47:30;;;;;;;5.77;5.57;;;23.00;99.90;;;;;;4916270;29;20541;-67
2021/08/12 07:49:57;;;;;;;4.73;4.53;;;22.90;99.90;;;;;;4915816;29;20463;-67
2021/08/12 07:52:23;;;;;;;6.10;5.80;;;22.90;99.90;;;;;;4911178;29;20483;-67
2021/08/12 07:54:50;;;;;;;6.20;5.60;;;23.00;99.90;;;;;;4901982;29;20558;-67
2021/08/12 07:57:17;;;;;;;5.13;4.90;;;22.90;99.90;;;;;;4916335;29;20571;-67
2021/08/12 07:59:44;;;;;;;5.87;5.53;;;22.80;99.90;;;;;;4911453;29;20469;-67
2021/08/12 08:02:12;;;;;;;5.83;5.53;;;22.90;99.90;;;;;;4901508;29;20498;-67
2021/08/12 08:04:38;;;;;;;5.67;5.33;;;22.90;99.90;;;;;;4913789;29;20463;-68
2021/08/12 08:07:05;;;;;;;5.63;5.40;;;22.90;99.90;;;;;;4916053;29;20477;-68
2021/08/12 08:09:32;;;;;;;6.47;6.17;;;22.80;99.90;;;;;;4915530;29;20462;-68
2021/08/12 08:11:58;;;;;;;7.23;5.53;;;22.70;99.90;;;;;;4916029;29;20482;-67
2021/08/12 08:14:25;;;;;;;5.30;5.10;;;22.50;99.90;;;;;;4915585;29;20463;-68
2021/08/12 08:16:52;;;;;;;6.43;6.03;;;22.50;99.90;;;;;;4915834;29;20518;-68
2021/08/12 08:19:19;;;;;;;6.00;5.70;;;22.50;99.90;;;;;;4913961;29;20462;-68
2021/08/12 08:21:46;;;;;;;7.10;6.63;;;22.40;99.90;;;;;;4903560;29;20992;-68
2021/08/12 08:24:13;;;;;;;5.90;5.53;;;22.50;99.90;;;;;;4896340;29;20467;-68
2021/08/12 08:26:39;;;;;;;5.90;5.60;;;22.50;99.90;;;;;;4915210;29;20633;-67
2021/08/12 08:29:06;;;;;;;7.00;6.07;;;22.70;99.90;;;;;;4915811;29;20516;-68
2021/08/12 08:31:33;;;;;;;5.63;5.33;;;22.60;99.90;;;;;;4916176;29;20863;-68
2021/08/12 08:33:59;;;;;;;6.87;6.40;;;22.50;99.90;;;;;;4915327;29;20868;-68
2021/08/12 08:36:28;;;;;;;6.63;6.23;;;22.50;99.90;;;;;;4915677;29;20470;-68
2021/08/12 08:38:54;;;;;;;6.53;6.20;;;22.50;99.90;;;;;;4914968;29;20823;-68
2021/08/12 08:41:21;;;;;;;5.13;4.93;;;22.60;99.90;;;;;;4914126;29;20963;-68
2021/08/12 08:43:50;;;;;;;5.70;5.30;;;22.70;99.90;;;;;;4896414;29;20582;-68
2021/08/12 08:46:18;;;;;;;5.73;5.43;;;22.70;99.90;;;;;;4898215;29;20459;-68
2021/08/12 08:48:46;;;;;;;5.83;5.53;;;22.80;99.90;;;;;;4913261;29;20469;-68
2021/08/12 08:51:14;;;;;;;5.90;5.60;;;22.90;99.90;;;;;;4915034;29;20573;-68
2021/08/12 08:53:43;;;;;;;6.83;6.23;;;23.00;99.90;;;;;;4915016;29;20474;-68
2021/08/12 08:56:11;;;;;;;6.03;5.40;;;23.20;99.90;;;;;;4915041;29;20470;-68
2021/08/12 08:58:39;;;;;;;5.23;5.03;;;23.10;99.90;;;;;;4915649;29;20809;-68
2021/08/12 09:01:06;;;;;;;6.13;5.63;;;23.10;99.90;;;;;;4915749;29;20494;-68
2021/08/12 09:03:32;;;;;;;5.10;4.90;;;23.30;99.90;;;;;;4915086;29;20837;-68
2021/08/12 09:05:59;;;;;;;5.60;5.30;;;23.40;99.90;;;;;;4915048;29;20979;-68
2021/08/12 09:08:26;;;;;;;6.33;5.83;;;23.40;99.90;;;;;;4914552;29;20952;-68
2021/08/12 09:10:54;;;;;;;5.90;5.60;;;23.40;99.90;;;;;;4915171;29;20518;-69
2021/08/12 09:13:20;;;;;;;4.53;4.13;;;23.60;99.90;;;;;;4917008;29;20526;-69
2021/08/12 09:15:47;;;;;;;7.93;7.13;;;23.80;99.90;;;;;;4918754;29;20470;-69
2021/08/12 09:18:22;;;;;;;5.43;5.13;;;23.90;99.90;;;;;;4918274;29;20470;-69
2021/08/12 09:20:50;;;;;;;5.50;5.20;;;24.00;99.90;;;;;;4912854;29;20986;-69
2021/08/12 09:23:22;;;;;;;5.60;5.30;;;24.00;99.90;;;;;;4919411;29;20818;-69
2021/08/12 09:25:50;;;;;;;5.57;5.20;;;24.00;99.90;;;;;;4923041;29;20552;-69
2021/08/12 09:28:21;;;;;;;6.00;5.60;;;24.20;99.90;;;;;;4920606;29;20475;-69
2021/08/12 09:31:10;;;;;;;5.73;5.43;;;24.10;99.90;;;;;;4918906;29;20486;-68
2021/08/12 09:33:43;;;;;;;5.07;4.77;;;23.90;99.90;;;;;;4918331;29;20463;-70
2021/08/12 09:36:22;;;;;;;5.97;5.57;;;24.00;99.90;;;;;;4918574;29;20470;-68
2021/08/12 09:39:07;;;;;;;6.60;6.20;;;24.00;99.90;;;;;;4917899;29;20462;-67
2021/08/12 09:41:39;;;;;;;5.80;5.27;;;24.10;99.90;;;;;;4899620;29;20573;-69
2021/08/12 09:44:07;;;;;;;5.70;5.30;;;24.30;99.90;;;;;;4899484;29;20471;-68
2021/08/12 09:46:35;;;;;;;5.43;5.03;;;24.40;99.90;;;;;;4899931;29;20504;-69
2021/08/12 09:49:02;;;;;;;6.10;5.70;;;24.60;99.90;;;;;;4916562;29;20497;-68
2021/08/12 09:51:30;;;;;;;5.20;4.90;;;24.70;99.90;;;;;;4918469;29;20509;-69
2021/08/12 09:54:02;;;;;;;5.60;5.30;;;24.50;99.90;;;;;;4900894;29;20806;-69
2021/08/12 09:56:29;;;;;;;5.07;4.87;;;24.60;99.90;;;;;;4899588;29;20467;-69
2021/08/12 09:59:07;;;;;;;6.07;5.77;;;24.70;99.90;;;;;;4915772;29;20466;-69
2021/08/12 10:01:34;;;;;;;5.93;5.43;;;24.80;99.90;;;;;;4917796;29;20566;-69
2021/08/12 10:04:23;;;;;;;6.00;5.60;;;24.90;99.90;;;;;;4916972;29;20967;-69
2021/08/12 10:06:49;;;;;;;5.70;5.40;;;25.00;99.90;;;;;;4918425;29;21050;-68
2021/08/12 10:09:17;;;;;;;8.57;5.43;;;25.10;99.90;;;;;;4917376;29;20462;-68
2021/08/12 10:11:45;;;;;;;6.80;5.70;;;25.30;99.90;;;;;;4918061;29;20486;-68
2021/08/12 10:14:13;;;;;;;6.43;5.90;;;25.10;99.90;;;;;;4917279;29;20987;-68
2021/08/12 10:16:39;;;;;;;4.90;4.63;;;25.00;99.90;;;;;;4918040;29;20879;-68
2021/08/12 10:19:09;;;;;;;5.97;5.67;;;25.10;99.90;;;;;;4917174;29;20470;-68
2021/08/12 10:21:38;;;;;;;5.70;5.33;;;25.10;99.90;;;;;;4917904;29;20490;-69
2021/08/12 10:24:06;;;;;;;5.20;4.90;;;25.30;99.90;;;;;;4915763;29;20577;-68
2021/08/12 10:26:34;;;;;;;6.20;5.90;;;25.30;99.90;;;;;;4917377;29;20876;-68
2021/08/12 10:29:13;;;;;;;5.00;4.70;;;25.40;99.90;;;;;;4917068;29;20458;-69
2021/08/12 10:31:45;;;;;;;5.70;5.20;;;25.60;99.90;;;;;;4916596;29;20519;-68
2021/08/12 10:34:13;;;;;;;5.57;5.10;;;25.70;99.90;;;;;;4916524;29;20534;-68
2021/08/12 10:36:40;;;;;;;5.03;4.83;;;25.50;99.90;;;;;;4916976;29;20955;-69
2021/08/12 10:39:07;;;;;;;5.33;5.13;;;25.50;99.90;;;;;;4916883;29;20492;-68
2021/08/12 10:41:36;;;;;;;5.80;5.40;;;25.30;99.90;;;;;;4915799;29;20553;-69
2021/08/12 10:44:03;;;;;;;5.53;5.03;;;25.20;99.90;;;;;;4917134;29;20971;-69
2021/08/12 10:46:35;;;;;;;5.53;5.23;;;25.20;99.90;;;;;;4917529;29;20466;-68
2021/08/12 10:49:28;;;;;;;5.80;5.40;;;25.20;99.90;;;;;;4916063;29;20463;-69
2021/08/12 10:52:03;;;;;;;5.30;5.07;;;25.30;99.90;;;;;;4917562;29;20490;-69
2021/08/12 10:54:30;;;;;;;5.57;5.20;;;25.50;99.90;;;;;;4911694;29;20490;-69
2021/08/12 10:57:17;;;;;;;5.93;5.53;;;25.70;99.90;;;;;;4912767;29;20458;-68
2021/08/12 10:59:44;;;;;;;5.70;5.30;;;25.70;99.90;;;;;;4917128;29;20494;-68
2021/08/12 11:02:41;;;;;;;5.20;4.87;;;25.90;99.90;;;;;;4916365;29;20593;-69
2021/08/12 11:05:10;;;;;;;4.80;4.50;;;26.10;99.90;;;;;;4912117;29;20502;-68
2021/08/12 11:07:48;;;;;;;5.30;4.90;;;26.00;99.90;;;;;;4907651;29;20522;-68
2021/08/12 11:10:16;;;;;;;5.50;5.10;;;26.10;99.90;;;;;;4897859;29;20491;-69
2021/08/12 11:13:03;;;;;;;4.93;4.63;;;26.40;99.90;;;;;;4907014;29;20454;-68
2021/08/12 11:15:56;;;;;;;5.03;4.83;;;26.50;99.90;;;;;;4917071;29;20473;-68
2021/08/12 11:18:43;;;;;;;5.63;5.13;;;26.40;99.90;;;;;;4915450;29;20526;-69
2021/08/12 11:21:39;;;;;;;5.97;5.57;;;26.40;99.90;;;;;;4908421;29;20562;-69
2021/08/12 11:24:07;;;;;;;5.07;4.77;;;26.60;99.90;;;;;;4897061;29;20951;-68
2021/08/12 11:27:04;;;;;;;3.93;3.63;;;26.60;99.90;;;;;;4900495;29;20470;-69
2021/08/12 11:29:34;;;;;;;4.77;4.40;;;26.50;99.90;;;;;;4916728;29;20489;-69
2021/08/12 11:32:03;;;;;;;4.53;4.30;;;26.50;99.90;;;;;;4914576;29;20562;-69
2021/08/12 11:34:35;;;;;;;4.70;4.50;;;26.50;99.90;;;;;;4904970;29;20455;-69
2021/08/12 11:37:08;;;;;;;4.50;4.30;;;26.60;99.90;;;;;;4915664;29;20530;-69
2021/08/12 11:39:50;;;;;;;5.20;4.90;;;26.80;99.90;;;;;;4915701;29;20469;-68
2021/08/12 11:42:29;;;;;;;5.03;4.80;;;27.10;99.90;;;;;;4916397;29;20862;-69
2021/08/12 11:44:57;;;;;;;4.40;4.20;;;27.10;99.90;;;;;;4915773;29;21022;-69
2021/08/12 11:47:24;;;;;;;5.53;5.13;;;26.90;99.90;;;;;;4916558;29;20549;-69
2021/08/12 11:49:52;;;;;;;4.73;4.53;;;26.70;99.90;;;;;;4915460;29;21036;-69
2021/08/12 11:52:25;;;;;;;5.00;4.80;;;26.60;99.90;;;;;;4911949;29;20491;-69
2021/08/12 11:55:00;;;;;;;4.80;4.60;;;26.70;99.90;;;;;;4910597;29;20561;-69
2021/08/12 11:57:44;;;;;;;4.80;4.50;;;26.70;99.90;;;;;;4897428;29;20482;-69
2021/08/12 12:00:13;;;;;;;4.53;4.33;;;26.80;99.90;;;;;;4912926;29;20467;-69
2021/08/12 12:02:50;;;;;;;5.07;4.60;;;26.80;99.90;;;;;;4915590;29;20494;-69
2021/08/12 12:05:17;;;;;;;4.40;4.20;;;26.90;99.90;;;;;;4915321;29;20966;-69
2021/08/12 12:07:48;;;;;;;4.80;4.53;;;26.90;99.90;;;;;;4915785;29;20529;-69
2021/08/12 12:10:26;;;;;;;5.07;4.77;;;26.90;99.90;;;;;;4915561;29;20466;-69
2021/08/12 12:12:54;;;;;;;4.43;4.23;;;27.10;99.90;;;;;;4913059;29;20496;-69
2021/08/12 12:15:34;;;;;;;4.70;4.43;;;27.20;99.90;;;;;;4915454;29;20466;-69
2021/08/12 12:18:01;;;;;;;4.60;4.40;;;27.10;99.90;;;;;;4915116;29;20610;-69
2021/08/12 12:20:29;;;;;;;5.23;4.90;;;27.20;99.90;;;;;;4915462;29;20857;-69
2021/08/12 12:23:01;;;;;;;5.40;5.10;;;27.40;99.90;;;;;;4914799;29;20502;-69
2021/08/12 12:25:29;;;;;;;4.40;4.20;;;27.40;99.90;;;;;;4900771;29;20475;-69
2021/08/12 12:27:57;;;;;;;5.13;4.83;;;27.30;99.90;;;;;;4915659;29;20535;-69
2021/08/12 12:30:25;;;;;;;4.93;4.63;;;27.30;99.90;;;;;;4915602;29;20471;-69
2021/08/12 12:33:00;;;;;;;3.80;3.60;;;27.30;99.90;;;;;;4914530;29;20948;-69
2021/08/12 12:35:27;;;;;;;4.90;4.60;;;27.10;99.90;;;;;;4915075;29;21082;-69
2021/08/12 12:37:54;;;;;;;4.87;4.53;;;26.90;99.90;;;;;;4915779;29;20565;-69
2021/08/12 12:40:23;;;;;;;3.90;3.70;;;26.70;99.90;;;;;;4914512;29;20569;-69
2021/08/12 12:42:52;;;;;;;4.33;4.03;;;26.70;99.90;;;;;;4913768;29;20589;-69
2021/08/12 12:45:19;;;;;;;4.70;4.40;;;26.70;99.90;;;;;;4914268;29;20471;-69
2021/08/12 12:47:45;;;;;;;4.03;3.83;;;26.80;99.90;;;;;;4917873;29;20927;-69
2021/08/12 12:50:15;;;;;;;4.60;4.20;;;26.80;99.90;;;;;;4918290;29;20541;-69
2021/08/12 12:53:00;;;;;;;4.03;3.83;;;26.70;99.90;;;;;;4919026;29;20985;-69
2021/08/12 12:55:32;;;;;;;5.00;4.50;;;26.80;99.90;;;;;;4912109;29;20470;-69
2021/08/12 12:58:02;;;;;;;4.80;4.40;;;26.90;99.90;;;;;;4918916;29;20466;-68
2021/08/12 13:00:30;;;;;;;4.20;4.00;;;27.00;99.90;;;;;;4918885;29;20490;-69
2021/08/12 13:02:58;;;;;;;4.50;4.30;;;27.10;99.90;;;;;;4918273;29;20498;-70
2021/08/12 13:05:25;;;;;;;3.87;3.77;;;27.30;99.90;;;;;;4900305;29;20478;-70
2021/08/12 13:08:10;;;;;;;4.00;3.90;;;27.30;99.90;;;;;;4900290;29;20474;-70
2021/08/12 13:10:38;;;;;;;4.13;4.00;;;27.40;99.90;;;;;;4900459;29;20486;-70
2021/08/12 13:13:05;;;;;;;3.60;3.50;;;27.50;99.90;;;;;;4901090;29;20463;-69
2021/08/12 13:15:32;;;;;;;4.10;3.90;;;27.80;99.90;;;;;;4919058;29;20475;-70
2021/08/12 13:18:00;;;;;;;4.30;3.97;;;27.70;99.90;;;;;;4918898;29;20491;-71
2021/08/12 13:20:37;;;;;;;4.23;4.13;;;27.70;99.90;;;;;;4916312;29;20492;-70
2021/08/12 13:23:05;;;;;;;3.83;3.63;;;27.50;99.90;;;;;;4900366;29;20604;-69
2021/08/12 13:25:31;;;;;;;4.13;3.93;;;27.50;99.90;;;;;;4919032;29;20461;-68
2021/08/12 13:27:59;;;;;;;4.17;4.00;;;27.60;99.90;;;;;;4918566;29;20462;-69
2021/08/12 13:30:31;;;;;;;4.00;3.87;;;27.70;99.90;;;;;;4918090;29;20490;-72
2021/08/12 13:32:59;;;;;;;4.40;4.00;;;27.50;99.90;;;;;;4911267;29;20529;-70
2021/08/12 13:35:26;;;;;;;4.53;4.23;;;27.30;99.90;;;;;;4918243;29;20470;-70
2021/08/12 13:37:53;;;;;;;4.97;4.67;;;27.30;99.90;;;;;;4918794;29;20520;-72
2021/08/12 13:40:20;;;;;;;4.50;4.30;;;27.50;99.90;;;;;;4915653;29;20462;-72
2021/08/12 13:42:47;;;;;;;4.70;4.50;;;27.50;99.90;;;;;;4906455;29;20479;-72
2021/08/12 13:45:15;;;;;;;4.23;4.03;;;27.60;99.90;;;;;;4916772;29;20471;-73
2021/08/12 13:47:42;;;;;;;3.43;3.30;;;27.70;99.90;;;;;;4917211;29;20990;-72
2021/08/12 13:50:09;;;;;;;4.13;3.93;;;27.90;99.90;;;;;;4916496;29;20508;-70
2021/08/12 13:52:35;;;;;;;4.20;3.90;;;28.00;99.90;;;;;;4918283;29;20964;-73
2021/08/12 13:55:02;;;;;;;4.27;4.07;;;28.10;99.90;;;;;;4917453;29;20475;-71
2021/08/12 13:57:29;;;;;;;4.20;4.10;;;28.10;99.90;;;;;;4918480;29;20550;-71
2021/08/12 13:59:55;;;;;;;4.20;4.00;;;27.90;99.90;;;;;;4917030;29;20532;-72
2021/08/12 14:02:23;;;;;;;4.73;4.53;;;27.60;99.90;;;;;;4917596;29;20539;-69
2021/08/12 14:04:50;;;;;;;4.70;4.47;;;27.50;99.90;;;;;;4917520;29;20465;-69
2021/08/12 14:07:22;;;;;;;4.33;4.03;;;27.50;99.90;;;;;;4918304;29;20955;-73
2021/08/12 14:09:49;;;;;;;4.13;3.83;;;27.50;99.90;;;;;;4915255;29;20876;-72
2021/08/12 14:12:15;;;;;;;4.33;4.13;;;27.50;99.90;;;;;;4917575;29;20543;-71
2021/08/12 14:14:42;;;;;;;4.00;3.80;;;27.50;99.90;;;;;;4917898;29;20547;-70
2021/08/12 14:17:09;;;;;;;4.73;4.50;;;27.40;99.90;;;;;;4917733;29;20522;-69
2021/08/12 14:19:37;;;;;;;4.87;4.50;;;27.20;99.90;;;;;;4917713;29;20553;-69
2021/08/12 14:22:04;;;;;;;4.30;4.07;;;27.10;99.90;;;;;;4917708;29;20514;-70
2021/08/12 14:24:32;;;;;;;4.00;3.87;;;27.10;99.90;;;;;;4917977;29;20502;-69
2021/08/12 14:27:02;;;;;;;5.17;4.87;;;27.10;99.90;;;;;;4918431;29;20463;-68
2021/08/12 14:29:29;;;;;;;4.13;3.93;;;27.10;99.90;;;;;;4918335;29;20469;-68
2021/08/12 14:31:56;;;;;;;4.70;4.40;;;27.30;99.90;;;;;;4918483;29;20478;-68
2021/08/12 14:34:23;;;;;;;4.60;4.40;;;27.40;99.90;;;;;;4917438;29;20517;-68
2021/08/12 14:36:51;;;;;;;4.30;4.10;;;27.50;99.90;;;;;;4917841;29;20867;-69
2021/08/12 14:39:17;;;;;;;4.30;4.07;;;27.60;99.90;;;;;;4917066;29;20832;-69
2021/08/12 14:41:44;;;;;;;4.43;4.20;;;27.70;99.90;;;;;;4913481;29;20492;-68
2021/08/12 14:44:12;;;;;;;3.90;3.70;;;27.80;99.90;;;;;;4910828;29;20479;-68
2021/08/12 14:46:39;;;;;;;4.17;3.83;;;27.70;99.90;;;;;;4917078;29;20466;-68
2021/08/12 14:49:06;;;;;;;3.60;3.50;;;27.60;99.90;;;;;;4916394;29;20473;-68
2021/08/12 14:51:32;;;;;;;4.53;4.33;;;27.50;99.90;;;;;;4916955;29;20505;-67
2021/08/12 14:54:00;;;;;;;4.60;4.30;;;27.50;99.90;;;;;;4916076;29;20952;-67
2021/08/12 14:56:27;;;;;;;4.57;4.37;;;27.60;99.90;;;;;;4916518;29;20515;-68
2021/08/12 14:58:53;;;;;;;5.47;5.03;;;27.50;99.90;;;;;;4916705;29;21193;-68
2021/08/12 15:01:20;;;;;;;4.50;4.30;;;27.40;99.90;;;;;;4916803;29;20502;-69
2021/08/12 15:03:47;;;;;;;4.60;4.40;;;27.40;99.90;;;;;;4915755;29;20601;-68
2021/08/12 15:06:13;;;;;;;4.30;4.10;;;27.50;99.90;;;;;;4916572;29;20880;-68
2021/08/12 15:08:42;;;;;;;5.33;4.93;;;27.50;99.90;;;;;;4916079;29;20471;-70
2021/08/12 15:11:10;;;;;;;4.20;4.00;;;27.50;99.90;;;;;;4914074;29;20522;-68
2021/08/12 15:13:36;;;;;;;4.67;4.33;;;27.50;99.90;;;;;;4912769;29;20546;-69
2021/08/12 15:16:04;;;;;;;4.50;4.30;;;27.30;99.90;;;;;;4917265;29;20574;-69
2021/08/12 15:18:31;;;;;;;4.07;3.97;;;27.30;99.90;;;;;;4915500;29;20982;-68
2021/08/12 15:20:58;;;;;;;4.30;4.10;;;27.30;99.90;;;;;;4916794;29;20482;-70
2021/08/12 15:23:25;;;;;;;4.50;4.20;;;27.30;99.90;;;;;;4914014;29;20517;-68
2021/08/12 15:25:52;;;;;;;4.20;4.00;;;27.20;99.90;;;;;;4916732;29;20898;-67
2021/08/12 15:28:20;;;;;;;4.93;4.63;;;27.00;99.90;;;;;;4916443;29;20797;-66
2021/08/12 15:30:46;;;;;;;4.57;4.37;;;26.90;99.90;;;;;;4913652;29;20487;-67
2021/08/12 15:33:14;;;;;;;4.80;4.50;;;26.80;99.90;;;;;;4912112;29;20467;-67
2021/08/12 15:35:40;;;;;;;4.17;4.00;;;26.90;99.90;;;;;;4916652;29;20498;-69
2021/08/12 15:38:08;;;;;;;4.47;4.27;;;26.90;99.90;;;;;;4915724;29;20549;-69
2021/08/12 15:40:35;;;;;;;4.77;4.47;;;26.90;99.90;;;;;;4916544;29;20573;-70
2021/08/12 15:43:02;;;;;;;4.23;4.00;;;26.80;99.90;;;;;;4915624;29;20888;-69
2021/08/12 15:45:30;;;;;;;5.00;4.70;;;26.80;99.90;;;;;;4917078;29;20825;-70
2021/08/12 15:47:57;;;;;;;4.30;4.10;;;26.70;99.90;;;;;;4915389;29;20798;-69
2021/08/12 15:50:23;;;;;;;4.40;4.20;;;26.70;99.90;;;;;;4916130;29;20486;-70
2021/08/12 15:52:50;;;;;;;5.07;4.53;;;26.70;99.90;;;;;;4915472;29;20466;-70
2021/08/12 15:55:17;;;;;;;4.00;3.90;;;26.70;99.90;;;;;;4915963;29;20470;-71
2021/08/12 15:57:44;;;;;;;5.33;4.73;;;26.60;99.90;;;;;;4915965;29;20574;-71
2021/08/12 16:00:11;;;;;;;5.17;4.80;;;26.80;99.90;;;;;;4914873;29;20826;-72
2021/08/12 16:02:39;;;;;;;4.70;4.40;;;26.90;99.90;;;;;;4915705;29;20514;-70
2021/08/12 16:05:07;;;;;;;6.93;6.33;;;27.00;99.90;;;;;;4915302;29;20466;-71
2021/08/12 16:07:34;;;;;;;4.20;4.00;;;27.00;99.90;;;;;;4915831;29;20514;-71
2021/08/12 16:10:01;;;;;;;4.17;4.07;;;27.00;99.90;;;;;;4913877;29;20470;-70
2021/08/12 16:12:29;;;;;;;7.23;4.50;;;27.00;99.90;;;;;;4915549;29;20482;-70
2021/08/12 16:14:56;;;;;;;5.27;4.97;;;26.80;99.90;;;;;;4915454;29;20471;-69
2021/08/12 16:17:22;;;;;;;4.63;4.23;;;26.80;99.90;;;;;;4916266;29;20474;-70
2021/08/12 16:19:50;;;;;;;4.73;4.40;;;26.60;99.90;;;;;;4914730;29;20939;-70
2021/08/12 16:22:17;;;;;;;4.63;4.43;;;26.50;99.90;;;;;;4909641;29;20896;-69
2021/08/12 16:24:44;;;;;;;4.20;4.00;;;26.60;99.90;;;;;;4915003;29;20513;-70
2021/08/12 16:27:10;;;;;;;4.47;4.27;;;26.60;99.90;;;;;;4912804;29;20781;-69
2021/08/12 16:29:38;;;;;;;4.73;4.47;;;26.60;99.90;;;;;;4899625;29;20530;-69
2021/08/12 16:32:05;;;;;;;4.70;4.50;;;26.60;99.90;;;;;;4914975;29;20558;-69
2021/08/12 16:34:32;;;;;;;4.40;4.20;;;26.60;99.90;;;;;;4914867;29;20940;-70
2021/08/12 16:37:00;;;;;;;5.00;4.80;;;26.60;99.90;;;;;;4915440;29;20879;-70
2021/08/12 16:39:27;;;;;;;4.20;4.00;;;26.60;99.90;;;;;;4915145;29;20529;-70
2021/08/12 16:41:53;;;;;;;4.60;4.30;;;26.50;99.90;;;;;;4915799;29;20570;-70
2021/08/12 16:44:20;;;;;;;4.23;3.90;;;26.50;99.90;;;;;;4912456;29;20482;-70
2021/08/12 16:46:47;;;;;;;4.67;4.27;;;26.50;99.90;;;;;;4914888;29;20951;-70
2021/08/12 16:49:13;;;;;;;7.90;5.00;;;26.60;99.90;;;;;;4914457;29;20466;-68
2021/08/12 16:51:40;;;;;;;4.53;4.23;;;26.60;99.90;;;;;;4915201;29;21014;-68
2021/08/12 16:54:08;;;;;;;4.93;4.63;;;26.70;99.90;;;;;;4914370;29;20458;-67